Terminal Aerodrome Forecast
Issued by NWS

Home | Current Version | Previous Version | Text Only | Print | Product List | Glossary On
Versions: 1 2 3 4 5 6 7 8 9 10 11 12 13 14 15 16 17 18 19 20 21 22 23 24
000
FTUS41 KOKX 311700
TAFTEB
TAF
KTEB 311730Z 3118/0118 04005KT P6SM BKN050 OVC150
      TEMPO 0101/0103 -RA
     FM010300 02008KT P6SM -RA OVC025
     FM010700 02012G20KT 5SM -RA BR OVC015
     FM011500 02015G25KT 4SM RA BR OVC012=

USA.gov is the U.S. government's official web portal to all federal, state and local government web resources and services.